Terminal Aerodrome Forecast
Issued by NWS Jacksonville, FL

Home | Current Version | Previous Version | Text Only | Print | Product List | Glossary On
Versions: 1 2 3 4 5 6 7 8 9 10 11 12 13 14 15 16 17 18 19
000
FTUS42 KJAX 220500
TAFSSI
TAF
KSSI 220520Z 2206/2306 01006KT 5SM SHRA BR OVC003
      TEMPO 2208/2212 1SM RA BR
     FM221800 06006KT 6SM SHRA BR OVC005
     FM230000 09005KT 4SM BR VCSH OVC003=

USA.gov is the U.S. government's official web portal to all federal, state and local government web resources and services.